Time;durP1;ratioP1;P1;durP2;ratioP2;P2;SDS_P1;SDS_P2;PMS_P1;PMS_P2;Temp;Humidity;BMP_temperature;BMP_pressure;BME280_temperature;BME280_humidity;BME280_pressure;Samples;Min_cycle;Max_cycle;Signal;HPM_P1;HPM_P2
2023/06/30 00:01:28;;;;;;;;;;;12.60;94.50;;;;;;5094829;28;19912;-63
2023/06/30 00:03:55;;;;;;;;;;;12.70;94.50;;;;;;5094748;28;19999;-63
2023/06/30 00:06:22;;;;;;;;;;;12.70;94.50;;;;;;5089218;28;20452;-63
2023/06/30 00:08:49;;;;;;;;;;;12.80;94.40;;;;;;5095650;28;20327;-63
2023/06/30 00:11:17;;;;;;;;;;;12.90;94.30;;;;;;5095384;28;19908;-62
2023/06/30 00:13:44;;;;;;;;;;;13.00;94.50;;;;;;5083724;28;20414;-63
2023/06/30 00:16:10;;;;;;;;;;;13.00;94.30;;;;;;5092978;28;19927;-62
2023/06/30 00:18:37;;;;;;;;;;;13.10;94.30;;;;;;5095087;28;19966;-62
2023/06/30 00:21:04;;;;;;;;;;;13.10;94.20;;;;;;5095288;28;19918;-63
2023/06/30 00:23:30;;;;;;;;;;;13.20;93.80;;;;;;5094598;28;20292;-62
2023/06/30 00:25:57;;;;;;;;;;;13.30;94.00;;;;;;5092948;28;19912;-61
2023/06/30 00:28:24;;;;;;;;;;;13.30;94.00;;;;;;5094811;28;19912;-62
2023/06/30 00:30:50;;;;;;;;;;;13.50;93.50;;;;;;5095198;28;20007;-62
2023/06/30 00:33:17;;;;;;;;;;;13.40;93.20;;;;;;5088326;28;19921;-63
2023/06/30 00:35:44;;;;;;;;;;;13.60;93.30;;;;;;5076542;28;20365;-62
2023/06/30 00:38:10;;;;;;;;;;;13.70;93.30;;;;;;5083802;28;19912;-62
2023/06/30 00:40:37;;;;;;;;;;;13.70;92.80;;;;;;5074886;28;19916;-62
2023/06/30 00:43:04;;;;;;;;;;;13.80;92.90;;;;;;5073970;28;19916;-63
2023/06/30 00:45:30;;;;;;;;;;;13.90;92.70;;;;;;5074409;28;19925;-61
2023/06/30 00:47:57;;;;;;;;;;;13.90;92.70;;;;;;5083164;28;19935;-62
2023/06/30 00:50:24;;;;;;;;;;;14.10;92.70;;;;;;5094834;28;19915;-63
2023/06/30 00:52:51;;;;;;;;;;;14.20;92.80;;;;;;5092595;28;19970;-62
2023/06/30 00:55:17;;;;;;;;;;;14.20;92.00;;;;;;5093789;28;20475;-61
2023/06/30 00:57:44;;;;;;;;;;;14.30;91.90;;;;;;5093871;28;19908;-61
2023/06/30 01:00:11;;;;;;;;;;;14.40;92.30;;;;;;5090962;28;20498;-63
2023/06/30 01:02:48;;;;;;;;;;;14.40;91.80;;;;;;5092039;28;19912;-61
2023/06/30 01:05:25;;;;;;;;;;;14.50;91.70;;;;;;5093897;28;20037;-63
2023/06/30 01:07:51;;;;;;;;;;;14.50;91.60;;;;;;5094190;28;19915;-63
2023/06/30 01:10:21;;;;;;;;;;;14.70;91.80;;;;;;5094655;28;20269;-61
2023/06/30 01:12:48;;;;;;;;;;;14.80;91.80;;;;;;5087462;28;19957;-62
2023/06/30 01:15:15;;;;;;;;;;;14.90;91.40;;;;;;5073208;28;19913;-60
2023/06/30 01:17:46;;;;;;;;;;;15.00;91.00;;;;;;5073840;28;19912;-62
2023/06/30 01:20:13;;;;;;;;;;;15.00;90.90;;;;;;5080479;28;19919;-63
2023/06/30 01:22:58;;;;;;;;;;;15.10;90.80;;;;;;5085521;28;19912;-63
2023/06/30 01:25:28;;;;;;;;;;;15.20;90.90;;;;;;5081711;28;19918;-63
2023/06/30 01:27:55;;;;;;;;;;;15.30;90.70;;;;;;5094289;28;19908;-62
2023/06/30 01:30:22;;;;;;;;;;;15.40;90.90;;;;;;5093941;28;20326;-64
2023/06/30 01:32:54;;;;;;;;;;;15.50;90.60;;;;;;5091977;28;19973;-61
2023/06/30 01:35:21;;;;;;;;;;;15.50;90.50;;;;;;5093518;28;19965;-62
2023/06/30 01:37:48;;;;;;;;;;;15.60;90.30;;;;;;5086911;28;19917;-62
2023/06/30 01:40:15;;;;;;;;;;;15.60;90.40;;;;;;5076463;28;19913;-61
2023/06/30 01:42:42;;;;;;;;;;;15.70;90.50;;;;;;5088879;28;19997;-62
2023/06/30 01:45:10;;;;;;;;;;;15.80;90.10;;;;;;5073070;28;19920;-63
2023/06/30 01:47:37;;;;;;;;;;;15.90;90.20;;;;;;5075918;28;19974;-62
2023/06/30 01:50:04;;;;;;;;;;;16.00;89.90;;;;;;5093395;28;20010;-64
2023/06/30 01:52:30;;;;;;;;;;;16.00;89.30;;;;;;5084962;28;20385;-64
2023/06/30 01:54:57;;;;;;;;;;;16.10;89.60;;;;;;5091076;28;19908;-63
2023/06/30 01:57:24;;;;;;;;;;;16.20;89.60;;;;;;5093225;28;19916;-61
2023/06/30 01:59:50;;;;;;;;;;;16.40;89.70;;;;;;5093427;28;19908;-61
2023/06/30 02:02:17;;;;;;;;;;;16.60;88.60;;;;;;5085116;28;20434;-62
2023/06/30 02:04:43;;;;;;;;;;;16.60;88.20;;;;;;5092890;28;19916;-62
2023/06/30 02:07:10;;;;;;;;;;;16.70;87.90;;;;;;5092549;28;19912;-64
2023/06/30 02:09:37;;;;;;;;;;;16.60;88.30;;;;;;5093318;28;19931;-64
2023/06/30 02:12:04;;;;;;;;;;;16.60;87.50;;;;;;5082748;28;19935;-62
2023/06/30 02:14:30;;;;;;;;;;;16.60;88.50;;;;;;5072804;28;20414;-62
2023/06/30 02:16:57;;;;;;;;;;;16.60;88.20;;;;;;5086957;28;19973;-63
2023/06/30 02:19:24;;;;;;;;;;;16.60;88.20;;;;;;5056113;28;19913;-63
2023/06/30 02:21:50;;;;;;;;;;;16.70;87.90;;;;;;5072946;28;19912;-61
2023/06/30 02:24:17;;;;;;;;;;;16.70;87.70;;;;;;5082767;28;19916;-61
2023/06/30 02:26:47;;;;;;;;;;;16.60;87.30;;;;;;5071757;28;20327;-63
2023/06/30 02:29:14;;;;;;;;;;;16.70;87.30;;;;;;5082122;28;19909;-60
2023/06/30 02:31:40;;;;;;;;;;;16.70;87.50;;;;;;5086301;28;20006;-62
2023/06/30 02:34:07;;;;;;;;;;;16.80;87.10;;;;;;5092754;28;20041;-62
2023/06/30 02:36:33;;;;;;;;;;;16.90;86.80;;;;;;5101744;28;19972;-61
2023/06/30 02:39:00;;;;;;;;;;;17.00;86.80;;;;;;5096988;28;19912;-63
2023/06/30 02:41:27;;;;;;;;;;;17.00;86.70;;;;;;5091861;28;20385;-63
2023/06/30 02:43:53;;;;;;;;;;;17.00;86.40;;;;;;5092184;28;19970;-63
2023/06/30 02:46:20;;;;;;;;;;;17.00;86.80;;;;;;5092100;28;19999;-62
2023/06/30 02:48:47;;;;;;;;;;;17.00;87.30;;;;;;5091834;28;19912;-62
2023/06/30 02:51:13;;;;;;;;;;;17.00;86.70;;;;;;5091352;28;19915;-63
2023/06/30 02:53:40;;;;;;;;;;;17.10;86.40;;;;;;5075707;28;20027;-62
2023/06/30 02:56:06;;;;;;;;;;;17.30;86.30;;;;;;5087324;28;19963;-63
2023/06/30 02:58:36;;;;;;;;;;;17.40;85.50;;;;;;5090819;28;19955;-62
2023/06/30 03:01:05;;;;;;;;;;;17.70;85.30;;;;;;5091695;28;19938;-63
2023/06/30 03:03:32;;;;;;;;;;;18.20;84.60;;;;;;5076775;28;19913;-62
2023/06/30 03:05:59;;;;;;;;;;;18.70;83.40;;;;;;5095445;28;19913;-61
2023/06/30 03:08:26;;;;;;;;;;;19.20;82.20;;;;;;5090723;28;19973;-61
2023/06/30 03:10:52;;;;;;;;;;;19.70;81.10;;;;;;5090918;28;20268;-61
2023/06/30 03:13:19;;;;;;;;;;;19.80;80.30;;;;;;5088323;28;20024;-64
2023/06/30 03:15:46;;;;;;;;;;;19.60;80.50;;;;;;5074011;28;19970;-64
2023/06/30 03:18:12;;;;;;;;;;;19.50;80.80;;;;;;5083876;28;19922;-62
2023/06/30 03:20:39;;;;;;;;;;;19.50;80.90;;;;;;5083342;28;20275;-63
2023/06/30 03:23:06;;;;;;;;;;;19.70;80.80;;;;;;5071460;28;20003;-63
2023/06/30 03:25:32;;;;;;;;;;;20.00;79.10;;;;;;5092147;28;20011;-64
2023/06/30 03:27:59;;;;;;;;;;;20.50;78.70;;;;;;5077598;28;19912;-61
2023/06/30 03:30:26;;;;;;;;;;;21.50;76.90;;;;;;5087684;28;19913;-63
2023/06/30 03:32:52;;;;;;;;;;;22.00;75.60;;;;;;5075797;28;19988;-63
2023/06/30 03:35:19;;;;;;;;;;;22.40;74.00;;;;;;5077536;28;19919;-62
2023/06/30 03:37:45;;;;;;;;;;;23.00;73.60;;;;;;5071831;28;19916;-61
2023/06/30 03:40:13;;;;;;;;;;;24.20;70.00;;;;;;5071498;28;19920;-60
2023/06/30 03:42:40;;;;;;;;;;;25.70;67.70;;;;;;5078178;28;19915;-62
2023/06/30 03:45:07;;;;;;;;;;;26.60;66.20;;;;;;5090023;28;19924;-61
2023/06/30 03:47:33;;;;;;;;;;;27.50;63.80;;;;;;5089983;28;19908;-60
2023/06/30 03:50:00;;;;;;;;;;;28.20;62.40;;;;;;5089930;28;19914;-63
2023/06/30 03:52:27;;;;;;;;;;;28.40;61.10;;;;;;5089845;28;20361;-61
2023/06/30 03:54:53;;;;;;;;;;;28.70;60.50;;;;;;5090266;28;19908;-61
2023/06/30 03:57:20;;;;;;;;;;;29.20;59.80;;;;;;5090389;28;19916;-61
2023/06/30 03:59:47;;;;;;;;;;;29.30;58.60;;;;;;5091554;28;19909;-60
2023/06/30 04:02:13;;;;;;;;;;;29.00;58.20;;;;;;5091461;28;20008;-63
2023/06/30 04:04:40;;;;;;;;;;;28.80;58.20;;;;;;5091789;28;19908;-63
2023/06/30 04:07:07;;;;;;;;;;;28.40;57.90;;;;;;5091779;28;20011;-61
2023/06/30 04:09:33;;;;;;;;;;;27.60;59.00;;;;;;5091352;28;19947;-61
2023/06/30 04:12:00;;;;;;;;;;;26.70;60.00;;;;;;5089116;28;19916;-61
2023/06/30 04:14:27;;;;;;;;;;;25.40;61.20;;;;;;5071571;28;19913;-62
2023/06/30 04:16:53;;;;;;;;;;;24.10;63.10;;;;;;5071547;28;19916;-63
2023/06/30 04:19:21;;;;;;;;;;;22.90;65.20;;;;;;5071354;28;19909;-60
2023/06/30 04:21:49;;;;;;;;;;;21.80;67.60;;;;;;5070594;28;19908;-61
2023/06/30 04:24:16;;;;;;;;;;;21.00;69.10;;;;;;5071686;28;20000;-60
2023/06/30 04:26:42;;;;;;;;;;;20.40;70.40;;;;;;5071316;28;19956;-60
2023/06/30 04:29:09;;;;;;;;;;;19.90;71.80;;;;;;5075532;28;20353;-62
2023/06/30 04:31:35;;;;;;;;;;;19.60;72.00;;;;;;5090790;28;19908;-60
2023/06/30 04:34:02;;;;;;;;;;;19.40;73.00;;;;;;5072336;28;19913;-59
2023/06/30 04:36:29;;;;;;;;;;;19.20;74.00;;;;;;5089450;28;20356;-61
2023/06/30 04:38:55;;;;;;;;;;;19.10;74.50;;;;;;5094998;28;19943;-60
2023/06/30 04:41:22;;;;;;;;;;;19.00;74.10;;;;;;5094456;28;19947;-61
2023/06/30 04:43:49;;;;;;;;;;;18.90;74.60;;;;;;5094671;28;19916;-61
2023/06/30 04:46:16;;;;;;;;;;;18.80;75.30;;;;;;5095088;28;20361;-60
2023/06/30 04:48:42;;;;;;;;;;;18.70;75.30;;;;;;5094920;28;19908;-60
2023/06/30 04:51:09;;;;;;;;;;;18.60;75.70;;;;;;5094055;28;19962;-61
2023/06/30 04:53:38;;;;;;;;;;;18.70;76.10;;;;;;5094915;28;19908;-61
2023/06/30 04:56:05;;;;;;;;;;;18.70;76.00;;;;;;5094681;28;19990;-60
2023/06/30 04:58:32;;;;;;;;;;;18.70;76.00;;;;;;5094463;28;19915;-60
2023/06/30 05:00:58;;;;;;;;;;;18.80;75.90;;;;;;5094998;28;19912;-59
2023/06/30 05:03:25;;;;;;;;;;;18.80;75.90;;;;;;5094034;28;20377;-62
2023/06/30 05:05:52;;;;;;;;;;;18.80;76.00;;;;;;5094433;28;20057;-61
2023/06/30 05:08:18;;;;;;;;;;;18.90;76.10;;;;;;5094591;28;19909;-59
2023/06/30 05:10:45;;;;;;;;;;;18.80;76.40;;;;;;5094382;28;19912;-59
2023/06/30 05:13:12;;;;;;;;;;;18.80;76.30;;;;;;5093756;28;19912;-61
2023/06/30 05:15:38;;;;;;;;;;;18.80;75.90;;;;;;5094487;28;19912;-60
2023/06/30 05:18:05;;;;;;;;;;;18.90;76.50;;;;;;5094566;28;19912;-61
2023/06/30 05:20:33;;;;;;;;;;;19.00;76.50;;;;;;5093193;28;20410;-61
2023/06/30 05:23:00;;;;;;;;;;;18.80;76.50;;;;;;5081664;28;19963;-61
2023/06/30 05:25:27;;;;;;;;;;;18.80;76.10;;;;;;5073333;28;19915;-62
2023/06/30 05:27:54;;;;;;;;;;;18.70;76.10;;;;;;5073917;28;20007;-61
2023/06/30 05:30:20;;;;;;;;;;;18.70;77.00;;;;;;5073574;28;19966;-61
2023/06/30 05:32:47;;;;;;;;;;;18.70;77.90;;;;;;5081934;28;19935;-61
2023/06/30 05:35:14;;;;;;;;;;;18.80;77.40;;;;;;5093765;28;19961;-62
2023/06/30 05:37:40;;;;;;;;;;;18.80;76.80;;;;;;5093991;28;19999;-60
2023/06/30 05:40:07;;;;;;;;;;;18.90;76.90;;;;;;5093923;28;19908;-60
2023/06/30 05:42:34;;;;;;;;;;;18.90;77.30;;;;;;5082776;28;20040;-61
2023/06/30 05:45:00;;;;;;;;;;;19.20;76.50;;;;;;5092087;28;19928;-60
2023/06/30 05:47:27;;;;;;;;;;;19.20;76.10;;;;;;5092502;28;19908;-60
2023/06/30 05:49:54;;;;;;;;;;;19.20;76.20;;;;;;5092900;28;19916;-62
2023/06/30 05:52:24;;;;;;;;;;;19.30;76.00;;;;;;5092150;28;20353;-61
2023/06/30 05:54:51;;;;;;;;;;;19.30;75.80;;;;;;5092713;28;19915;-61
2023/06/30 05:57:18;;;;;;;;;;;19.30;76.00;;;;;;5092628;28;19916;-61
2023/06/30 05:59:44;;;;;;;;;;;19.30;75.90;;;;;;5092886;28;19998;-61
2023/06/30 06:02:11;;;;;;;;;;;19.40;75.90;;;;;;5092365;28;19999;-62
2023/06/30 06:04:38;;;;;;;;;;;19.60;75.50;;;;;;5092971;28;19908;-62
2023/06/30 06:07:05;;;;;;;;;;;19.90;74.90;;;;;;5092752;28;19930;-62
2023/06/30 06:09:32;;;;;;;;;;;20.30;74.70;;;;;;5092770;28;19908;-62
2023/06/30 06:11:58;;;;;;;;;;;20.80;73.70;;;;;;5090184;28;19940;-62
2023/06/30 06:14:25;;;;;;;;;;;21.20;72.70;;;;;;5072532;28;19909;-62
2023/06/30 06:16:52;;;;;;;;;;;21.10;72.10;;;;;;5072565;28;20285;-61
2023/06/30 06:19:20;;;;;;;;;;;20.50;72.70;;;;;;5072694;28;19914;-60
2023/06/30 06:21:50;;;;;;;;;;;19.90;74.60;;;;;;5078021;28;20319;-61
2023/06/30 06:24:16;;;;;;;;;;;19.50;75.70;;;;;;5087930;28;19912;-63
2023/06/30 06:26:43;;;;;;;;;;;19.00;76.70;;;;;;5078968;28;19922;-63
2023/06/30 06:29:12;;;;;;;;;;;18.50;77.60;;;;;;5088481;28;20369;-61
2023/06/30 06:31:39;;;;;;;;;;;18.00;78.60;;;;;;5079768;28;19915;-63
2023/06/30 06:34:06;;;;;;;;;;;17.70;80.00;;;;;;5091005;28;19908;-61
2023/06/30 06:36:32;;;;;;;;;;;17.30;81.10;;;;;;5091991;28;19923;-62
2023/06/30 06:38:59;;;;;;;;;;;17.00;81.40;;;;;;5090554;28;19919;-60
2023/06/30 06:41:25;;;;;;;;;;;16.80;82.00;;;;;;5082108;28;19916;-61
2023/06/30 06:43:52;;;;;;;;;;;16.60;82.70;;;;;;5089209;28;19920;-61
2023/06/30 06:46:19;;;;;;;;;;;16.50;83.40;;;;;;5084557;28;20346;-63
2023/06/30 06:48:45;;;;;;;;;;;16.40;84.20;;;;;;5090867;28;19909;-63
2023/06/30 06:51:12;;;;;;;;;;;16.10;84.30;;;;;;5090112;28;20281;-61
2023/06/30 06:53:39;;;;;;;;;;;16.00;84.90;;;;;;5081965;28;20369;-61
2023/06/30 06:56:05;;;;;;;;;;;15.90;85.20;;;;;;5084103;28;19959;-62
2023/06/30 06:58:33;;;;;;;;;;;15.80;85.80;;;;;;5094080;28;19919;-63
2023/06/30 07:00:59;;;;;;;;;;;15.70;85.80;;;;;;5088314;28;19912;-63
2023/06/30 07:03:26;;;;;;;;;;;15.60;86.10;;;;;;5091654;28;20352;-63
2023/06/30 07:05:55;;;;;;;;;;;15.50;86.30;;;;;;5090888;28;19991;-62
2023/06/30 07:08:21;;;;;;;;;;;15.50;86.60;;;;;;5083100;28;19923;-63
2023/06/30 07:10:50;;;;;;;;;;;15.40;86.90;;;;;;5092034;28;20265;-63
2023/06/30 07:13:20;;;;;;;;;;;15.40;87.30;;;;;;5092281;28;20309;-61
2023/06/30 07:15:50;;;;;;;;;;;15.30;87.70;;;;;;5083076;28;19916;-62
2023/06/30 07:18:20;;;;;;;;;;;15.10;87.90;;;;;;5089851;28;19920;-64
2023/06/30 07:20:47;;;;;;;;;;;15.10;88.30;;;;;;5086855;28;19939;-63
2023/06/30 07:23:14;;;;;;;;;;;15.00;88.70;;;;;;5072050;28;19905;-64
2023/06/30 07:25:41;;;;;;;;;;;14.90;88.90;;;;;;5072274;28;19913;-64
2023/06/30 07:28:08;;;;;;;;;;;14.90;89.30;;;;;;5081096;28;19966;-63
2023/06/30 07:30:36;;;;;;;;;;;14.80;89.50;;;;;;5089547;28;20538;-63
2023/06/30 07:33:03;;;;;;;;;;;14.80;89.50;;;;;;5091747;28;19967;-65
2023/06/30 07:35:29;;;;;;;;;;;14.80;89.60;;;;;;5082696;28;19916;-62
2023/06/30 07:37:56;;;;;;;;;;;14.70;89.60;;;;;;5079853;28;19999;-64
2023/06/30 07:40:23;;;;;;;;;;;14.70;89.70;;;;;;5088491;28;20412;-64
2023/06/30 07:42:49;;;;;;;;;;;14.70;89.90;;;;;;5072069;28;20007;-64
2023/06/30 07:45:16;;;;;;;;;;;14.60;90.00;;;;;;5072358;28;19983;-63
2023/06/30 07:47:44;;;;;;;;;;;14.60;90.10;;;;;;5077847;28;20321;-65
2023/06/30 07:50:12;;;;;;;;;;;14.50;90.40;;;;;;5090127;28;19916;-64
2023/06/30 07:52:45;;;;;;;;;;;14.40;90.50;;;;;;5085153;28;19913;-64
2023/06/30 07:55:13;;;;;;;;;;;14.30;90.50;;;;;;5079863;28;19925;-64
2023/06/30 07:57:39;;;;;;;;;;;14.30;90.60;;;;;;5091979;28;19912;-63
2023/06/30 08:00:06;;;;;;;;;;;14.30;90.70;;;;;;5092011;28;19908;-63
2023/06/30 08:02:33;;;;;;;;;;;14.30;90.80;;;;;;5091724;28;20349;-64
2023/06/30 08:05:00;;;;;;;;;;;14.20;90.90;;;;;;5089893;28;19912;-62
2023/06/30 08:07:26;;;;;;;;;;;14.20;91.00;;;;;;5091428;28;19908;-62
2023/06/30 08:09:53;;;;;;;;;;;14.20;91.20;;;;;;5090009;28;20053;-63
2023/06/30 08:12:20;;;;;;;;;;;14.10;91.20;;;;;;5076358;28;19913;-64
2023/06/30 08:14:48;;;;;;;;;;;14.00;91.30;;;;;;5067238;28;19918;-63
2023/06/30 08:17:18;;;;;;;;;;;14.00;91.50;;;;;;5077489;28;19939;-63
2023/06/30 08:19:47;;;;;;;;;;;13.90;91.60;;;;;;5081002;28;20007;-62
2023/06/30 08:22:18;;;;;;;;;;;13.90;91.60;;;;;;5075373;28;19908;-64
2023/06/30 08:24:44;;;;;;;;;;;13.80;91.70;;;;;;5057412;28;19913;-61
2023/06/30 08:27:16;;;;;;;;;;;13.80;91.90;;;;;;5075039;28;19912;-62
2023/06/30 08:29:43;;;;;;;;;;;13.70;92.00;;;;;;5092148;28;20007;-62
2023/06/30 08:32:10;;;;;;;;;;;13.70;92.10;;;;;;5095400;28;19915;-63
2023/06/30 08:34:37;;;;;;;;;;;13.80;92.20;;;;;;5095341;28;19908;-65
2023/06/30 08:37:04;;;;;;;;;;;13.60;92.30;;;;;;5076703;28;19927;-61
2023/06/30 08:39:31;;;;;;;;;;;13.60;92.40;;;;;;5095114;28;19918;-64
2023/06/30 08:41:59;;;;;;;;;;;13.60;92.60;;;;;;5095076;28;19965;-62
2023/06/30 08:44:26;;;;;;;;;;;13.50;92.70;;;;;;5095377;28;19946;-63
2023/06/30 08:46:53;;;;;;;;;;;13.40;92.70;;;;;;5087659;28;19966;-62
2023/06/30 08:49:22;;;;;;;;;;;13.50;92.80;;;;;;5089229;28;19961;-64
2023/06/30 08:51:55;;;;;;;;;;;13.40;92.90;;;;;;5095170;28;20439;-62
2023/06/30 08:54:22;;;;;;;;;;;13.40;92.90;;;;;;5094615;28;19912;-62
2023/06/30 08:56:49;;;;;;;;;;;13.30;93.00;;;;;;5094341;28;19920;-62
2023/06/30 08:59:16;;;;;;;;;;;13.30;93.10;;;;;;5094679;28;19990;-62
2023/06/30 09:01:45;;;;;;;;;;;13.30;93.20;;;;;;5076021;28;19912;-62
2023/06/30 09:04:14;;;;;;;;;;;13.20;93.10;;;;;;5094674;28;20356;-62
2023/06/30 09:06:49;;;;;;;;;;;13.30;93.20;;;;;;5094038;28;20341;-63
2023/06/30 09:09:21;;;;;;;;;;;13.10;93.30;;;;;;5094408;28;20360;-61
2023/06/30 09:11:49;;;;;;;;;;;13.10;93.40;;;;;;5095097;28;19908;-62
2023/06/30 09:14:17;;;;;;;;;;;13.10;93.40;;;;;;5094995;28;20356;-62
2023/06/30 09:16:43;;;;;;;;;;;13.10;93.70;;;;;;5094775;28;19924;-62
2023/06/30 09:19:11;;;;;;;;;;;13.00;93.80;;;;;;5094560;28;19915;-62
2023/06/30 09:21:38;;;;;;;;;;;12.90;94.00;;;;;;5093451;28;19908;-62
2023/06/30 09:24:08;;;;;;;;;;;12.90;94.30;;;;;;5086630;28;20327;-63
2023/06/30 09:26:35;;;;;;;;;;;12.80;94.40;;;;;;5056104;28;19916;-61
2023/06/30 09:29:02;;;;;;;;;;;12.80;94.50;;;;;;5074100;28;20280;-62
2023/06/30 09:31:32;;;;;;;;;;;12.80;94.60;;;;;;5074834;28;19934;-62
2023/06/30 09:34:09;;;;;;;;;;;12.70;95.00;;;;;;5074348;28;19908;-62
2023/06/30 09:36:37;;;;;;;;;;;12.70;95.20;;;;;;5073951;28;19917;-62
2023/06/30 09:39:08;;;;;;;;;;;12.60;95.30;;;;;;5073618;28;19912;-63
2023/06/30 09:41:41;;;;;;;;;;;12.50;95.60;;;;;;5085678;28;19939;-65
2023/06/30 09:44:12;;;;;;;;;;;12.40;95.70;;;;;;5083913;28;20381;-63
2023/06/30 09:46:46;;;;;;;;;;;12.40;95.80;;;;;;5060005;28;19920;-64
2023/06/30 09:49:25;;;;;;;;;;;12.40;95.80;;;;;;5076656;28;19967;-62
2023/06/30 09:51:54;;;;;;;;;;;12.30;95.80;;;;;;5078186;28;19912;-63
2023/06/30 09:54:21;;;;;;;;;;;12.30;95.90;;;;;;5073392;28;19917;-61
2023/06/30 09:56:47;;;;;;;;;;;12.30;95.90;;;;;;5073462;28;20369;-62
2023/06/30 09:59:14;;;;;;;;;;;12.20;96.00;;;;;;5077741;28;20042;-63
2023/06/30 10:01:41;;;;;;;;;;;12.20;96.20;;;;;;5094098;28;19991;-62
2023/06/30 10:04:13;;;;;;;;;;;12.20;96.60;;;;;;5093617;28;20379;-63
2023/06/30 10:06:40;;;;;;;;;;;12.30;96.50;;;;;;5093547;28;20369;-62
2023/06/30 10:09:07;;;;;;;;;;;12.20;96.50;;;;;;5093346;28;19912;-61
2023/06/30 10:11:34;;;;;;;;;;;12.20;96.60;;;;;;5092928;28;20007;-63
2023/06/30 10:14:01;;;;;;;;;;;12.20;96.60;;;;;;5093385;28;20354;-63
2023/06/30 10:16:28;;;;;;;;;;;12.10;96.70;;;;;;5089999;28;21240;-63
2023/06/30 10:18:56;;;;;;;;;;;12.10;96.70;;;;;;5075087;28;19913;-62
2023/06/30 10:21:23;;;;;;;;;;;12.20;96.70;;;;;;5093847;28;19998;-61
2023/06/30 10:23:49;;;;;;;;;;;12.20;96.70;;;;;;5093449;28;19942;-62
2023/06/30 10:26:18;;;;;;;;;;;12.20;96.70;;;;;;5091963;28;19919;-63
2023/06/30 10:28:45;;;;;;;;;;;12.10;96.80;;;;;;5073214;28;20380;-63
2023/06/30 10:31:11;;;;;;;;;;;12.20;96.80;;;;;;5092713;28;19908;-61
2023/06/30 10:33:38;;;;;;;;;;;12.10;96.80;;;;;;5092181;28;20467;-60
2023/06/30 10:36:06;;;;;;;;;;;12.10;96.80;;;;;;5091162;28;19912;-61
2023/06/30 10:38:33;;;;;;;;;;;12.10;96.90;;;;;;5072603;28;19909;-62
2023/06/30 10:41:13;;;;;;;;;;;12.20;96.80;;;;;;5091589;28;19916;-61
2023/06/30 10:43:58;;;;;;;;;;;12.10;96.70;;;;;;5091264;28;20041;-62
2023/06/30 10:46:39;;;;;;;;;;;12.20;96.60;;;;;;5092858;28;19912;-64
2023/06/30 10:49:06;;;;;;;;;;;12.20;96.70;;;;;;5082600;28;19970;-61
2023/06/30 10:51:36;;;;;;;;;;;12.20;96.70;;;;;;5092445;28;19931;-65
2023/06/30 10:54:03;;;;;;;;;;;12.20;96.70;;;;;;5092922;28;19912;-61
2023/06/30 10:56:30;;;;;;;;;;;12.20;96.70;;;;;;5092070;28;19927;-64
2023/06/30 10:58:58;;;;;;;;;;;12.20;96.80;;;;;;5091688;28;20014;-66
2023/06/30 11:01:28;;;;;;;;;;;12.10;96.80;;;;;;5092558;28;19995;-65
2023/06/30 11:03:58;;;;;;;;;;;12.00;96.90;;;;;;5092425;28;20349;-66
2023/06/30 11:06:25;;;;;;;;;;;12.10;96.80;;;;;;5091424;28;20379;-65
2023/06/30 11:09:03;;;;;;;;;;;12.10;96.90;;;;;;5091836;28;19908;-65
2023/06/30 11:11:30;;;;;;;;;;;12.10;96.90;;;;;;5062288;28;19912;-63
2023/06/30 11:14:06;;;;;;;;;;;12.00;97.00;;;;;;5072178;28;20258;-65
2023/06/30 11:16:51;;;;;;;;;;;12.10;97.10;;;;;;5071892;28;19921;-63
2023/06/30 11:19:24;;;;;;;;;;;12.00;96.90;;;;;;5076907;28;20003;-63
2023/06/30 11:22:09;;;;;;;;;;;12.00;97.00;;;;;;5092300;28;19973;-62
2023/06/30 11:24:36;;;;;;;;;;;12.00;97.00;;;;;;5091797;28;19912;-65
2023/06/30 11:27:04;;;;;;;;;;;12.00;97.00;;;;;;5092480;28;20265;-65
2023/06/30 11:29:31;;;;;;;;;;;12.00;97.10;;;;;;5092115;28;20173;-66
2023/06/30 11:31:57;;;;;;;;;;;12.00;97.10;;;;;;5091639;28;19912;-65
2023/06/30 11:34:25;;;;;;;;;;;11.90;97.20;;;;;;5092610;28;20362;-64
2023/06/30 11:36:51;;;;;;;;;;;11.90;97.40;;;;;;5072456;28;19921;-64
2023/06/30 11:39:18;;;;;;;;;;;11.80;97.30;;;;;;5071842;28;19908;-63
2023/06/30 11:41:45;;;;;;;;;;;11.80;97.30;;;;;;5087524;28;19951;-64
2023/06/30 11:44:12;;;;;;;;;;;11.80;97.30;;;;;;5091653;28;19931;-62
2023/06/30 11:46:39;;;;;;;;;;;11.90;97.30;;;;;;5095005;28;19941;-64
2023/06/30 11:49:06;;;;;;;;;;;11.90;97.40;;;;;;5074536;28;19919;-65
2023/06/30 11:51:33;;;;;;;;;;;11.90;97.40;;;;;;5095561;28;19909;-62
2023/06/30 11:53:59;;;;;;;;;;;11.80;97.30;;;;;;5095427;28;19987;-62
2023/06/30 11:56:29;;;;;;;;;;;11.90;97.50;;;;;;5092358;28;20020;-62
2023/06/30 11:58:55;;;;;;;;;;;11.80;97.40;;;;;;5095058;28;20272;-63
2023/06/30 12:01:22;;;;;;;;;;;11.80;97.50;;;;;;5094710;28;19908;-62
2023/06/30 12:04:10;;;;;;;;;;;11.70;97.70;;;;;;5092752;28;20341;-64
2023/06/30 12:06:37;;;;;;;;;;;11.70;97.70;;;;;;5094636;28;19961;-62
2023/06/30 12:09:03;;;;;;;;;;;11.70;97.80;;;;;;5094914;28;19916;-63
2023/06/30 12:11:30;;;;;;;;;;;11.60;97.90;;;;;;5093042;28;19935;-63
2023/06/30 12:13:57;;;;;;;;;;;11.60;98.00;;;;;;5095253;28;19981;-65
2023/06/30 12:16:26;;;;;;;;;;;11.60;97.90;;;;;;5091164;28;20014;-63
2023/06/30 12:18:53;;;;;;;;;;;11.60;98.10;;;;;;5095460;28;19912;-63
2023/06/30 12:21:20;;;;;;;;;;;11.50;98.10;;;;;;5080840;28;19958;-62
2023/06/30 12:23:47;;;;;;;;;;;11.50;98.10;;;;;;5075529;28;19912;-63
2023/06/30 12:26:13;;;;;;;;;;;11.50;98.20;;;;;;5075548;28;19909;-63
2023/06/30 12:28:41;;;;;;;;;;;11.50;98.00;;;;;;5075324;28;19909;-62
2023/06/30 12:31:08;;;;;;;;;;;11.60;98.10;;;;;;5073953;28;19908;-64
2023/06/30 12:33:34;;;;;;;;;;;11.50;98.00;;;;;;5073751;28;19951;-64
2023/06/30 12:36:06;;;;;;;;;;;11.60;98.00;;;;;;5073844;28;20334;-65
2023/06/30 12:38:32;;;;;;;;;;;11.50;98.00;;;;;;5073548;28;20415;-64
2023/06/30 12:40:59;;;;;;;;;;;11.60;97.90;;;;;;5073446;28;20277;-64
2023/06/30 12:43:27;;;;;;;;;;;11.60;97.90;;;;;;5073468;28;19908;-64
2023/06/30 12:45:53;;;;;;;;;;;11.60;97.90;;;;;;5073492;28;19909;-64
2023/06/30 12:48:20;;;;;;;;;;;11.50;97.80;;;;;;5073479;28;19961;-63
2023/06/30 12:50:47;;;;;;;;;;;11.60;97.80;;;;;;5073276;28;19934;-64
2023/06/30 12:53:13;;;;;;;;;;;11.60;97.70;;;;;;5073183;28;20062;-63
2023/06/30 12:55:40;;;;;;;;;;;11.60;97.60;;;;;;5072980;28;19953;-65
2023/06/30 12:58:07;;;;;;;;;;;11.70;97.60;;;;;;5073219;28;19912;-62
2023/06/30 13:00:33;;;;;;;;;;;11.60;97.60;;;;;;5057078;28;20406;-65
2023/06/30 13:03:00;;;;;;;;;;;11.70;97.50;;;;;;5075180;28;19912;-65
2023/06/30 13:05:26;;;;;;;;;;;11.60;97.50;;;;;;5075423;28;19912;-65
2023/06/30 13:07:53;;;;;;;;;;;11.50;97.50;;;;;;5075169;28;20360;-63
2023/06/30 13:10:20;;;;;;;;;;;11.60;97.70;;;;;;5074921;28;19919;-65
2023/06/30 13:12:46;;;;;;;;;;;11.50;97.80;;;;;;5075063;28;19978;-64
2023/06/30 13:15:13;;;;;;;;;;;11.50;97.80;;;;;;5074977;28;19913;-65
2023/06/30 13:17:40;;;;;;;;;;;11.50;97.80;;;;;;5074710;28;19916;-64
2023/06/30 13:20:07;;;;;;;;;;;11.50;97.90;;;;;;5075199;28;19909;-65
2023/06/30 13:22:34;;;;;;;;;;;11.40;97.90;;;;;;5074698;28;19954;-64
2023/06/30 13:25:01;;;;;;;;;;;11.40;97.90;;;;;;5075137;28;19908;-65
2023/06/30 13:27:28;;;;;;;;;;;11.40;97.70;;;;;;5074735;28;19916;-64
2023/06/30 13:29:56;;;;;;;;;;;11.40;97.70;;;;;;5074623;28;20008;-64
2023/06/30 13:32:22;;;;;;;;;;;11.50;97.70;;;;;;5074677;28;20258;-64
2023/06/30 13:34:49;;;;;;;;;;;11.40;97.60;;;;;;5074523;28;19948;-65
2023/06/30 13:37:16;;;;;;;;;;;11.40;97.60;;;;;;5074681;28;19970;-65
2023/06/30 13:39:43;;;;;;;;;;;11.40;97.70;;;;;;5074458;28;19915;-63
2023/06/30 13:42:09;;;;;;;;;;;11.40;97.80;;;;;;5074522;28;19909;-62
2023/06/30 13:44:36;;;;;;;;;;;11.30;97.80;;;;;;5074404;28;19920;-62
2023/06/30 13:47:03;;;;;;;;;;;11.30;98.00;;;;;;5074577;28;19919;-64
2023/06/30 13:49:29;;;;;;;;;;;11.20;98.10;;;;;;5074408;28;19908;-62
2023/06/30 13:51:56;;;;;;;;;;;11.20;98.10;;;;;;5074330;28;20393;-64
2023/06/30 13:54:23;;;;;;;;;;;11.10;98.20;;;;;;5074387;28;19908;-63
2023/06/30 13:56:51;;;;;;;;;;;11.10;98.20;;;;;;5074111;28;20407;-64
2023/06/30 13:59:17;;;;;;;;;;;11.20;98.30;;;;;;5073955;28;19963;-64
2023/06/30 14:01:44;;;;;;;;;;;11.10;98.40;;;;;;5074008;28;19944;-63
2023/06/30 14:04:11;;;;;;;;;;;11.10;98.40;;;;;;5074641;28;20367;-65
2023/06/30 14:06:37;;;;;;;;;;;11.10;98.40;;;;;;5074312;28;19943;-64
2023/06/30 14:09:05;;;;;;;;;;;11.00;98.70;;;;;;5074085;28;19915;-64
2023/06/30 14:11:32;;;;;;;;;;;11.00;98.80;;;;;;5074712;28;19916;-65
2023/06/30 14:14:03;;;;;;;;;;;11.00;98.60;;;;;;5074768;28;19962;-63
2023/06/30 14:16:34;;;;;;;;;;;11.00;98.70;;;;;;5074175;28;19920;-64
2023/06/30 14:19:05;;;;;;;;;;;11.00;98.60;;;;;;5074060;28;19919;-63